Tajima, Japan

11:09 AM JST on July 31, 2014 (GMT +0900)
Tajima (RJBT) Elev 689 ft | 35.51 °N, 134.79 °E | Change Station

Current weather conditions updated 9 minutes ago

Partly Cloudy
Partly Cloudy
91 °F
Feels Like 95 °F
N
4
Wind Variable Wind from Variable

Today is forecast to be nearly the same temperature as yesterday.

Today
High -- | Low -- °F
--% Chance of Precip.
Yesterday
High -- | Low -- °F
Precip. -- in
5:07 AM 7:06 PM
Waxing Crescent, 15% visible
Pressure 29.92 in
Visibility 6.2 miles
Clouds Few 3000 ft
Heat Index 95 °F
Dew Point 68 °F
Humidity 46%
Rainfall 0.00 in
Snow Depth Not available.
UV 11 out of 12
Pollen Not available.
Air Quality Not available.
Flu Activity Not available.
METAR RJBT 310200Z VRB03KT 9999 FEW030 33/20 Q1013

More Conditions Fewer Conditions

Pressure 29.92 in
Visibility 6.2 miles
Clouds Few 3000 ft
Heat Index 95 °F
Dew Point 68 °F
Humidity 46%
Rainfall 0.00 in
Snow Depth Not available.
UV 11 out of 12
Pollen Not available.
Air Quality Not available.
Flu Activity Not available.
METAR RJBT 310200Z VRB03KT 9999 FEW030 33/20 Q1013

More Conditions Fewer Conditions

10-Day Weather Forecast

Almanac

Astronomy

Jul. 31, 2014 Rise Set
Actual Time 5:07 AM JST 7:06 PM JST
Civil Twilight 4:39 AM JST 7:34 PM JST
Nautical Twilight 4:05 AM JST 8:08 PM JST
Astronomical Twilight 3:28 AM JST 8:44 PM JST
Moon 8:50 AM JST 9:10 PM JST
Length of Visible Light 14h 54m
Length of Day
13h 58m
Tomorrow will be 1m 38s shorter.
Waxing Crescent, 15% of the Moon is Illuminated
Jul 30
Waxing Crescent
Aug 3
First Quarter
Aug 10
Full
Aug 17
Last Quarter
Aug 25
New

Yesterday's Extremes

Country Highs Country Lows

Community

WunderPhotos

Upload Photos

1,739,267 photos uploaded!

Nearby

Snow Depth

Not available.

Earthquake Activity

City Distance Mag. Time & Date
No recent earthquake activity has been reported nearby.
Minimum magnitude displayed is 2.5.

Coastal Water Temperatures

Place Temperature
No Stations Reporting

Nearby Weather Stations

There are no personal weather stations in this area.